createdAt,value
2017-12-01T00:02:40.825Z,8.68
2017-12-01T00:05:20.151Z,8.13
2017-12-01T00:07:56.759Z,8.50
2017-12-01T00:10:35.443Z,8.05
2017-12-01T00:13:14.324Z,8.07
2017-12-01T00:15:56.368Z,8.63
2017-12-01T00:18:44.136Z,8.23
2017-12-01T00:21:26.591Z,7.82
2017-12-01T00:24:05.176Z,8.43
2017-12-01T00:26:43.815Z,8.02
2017-12-01T00:29:25.051Z,7.85
2017-12-01T00:32:07.395Z,7.55
2017-12-01T00:34:42.356Z,7.87
2017-12-01T00:37:18.003Z,8.15
2017-12-01T00:39:55.555Z,8.70
2017-12-01T00:42:30.101Z,7.60
2017-12-01T00:45:06.977Z,7.87
2017-12-01T00:47:51.069Z,7.72
2017-12-01T00:50:42.442Z,7.78
2017-12-01T00:53:19.143Z,7.78
2017-12-01T00:55:58.452Z,7.45
2017-12-01T00:58:38.172Z,7.97
2017-12-01T01:01:18.685Z,7.82
2017-12-01T01:03:57.646Z,8.52
2017-12-01T01:06:40.308Z,9.40
2017-12-01T01:09:42.574Z,9.60
2017-12-01T01:12:24.636Z,10.45
2017-12-01T01:15:08.225Z,10.90
2017-12-01T01:18:03.136Z,11.77
2017-12-01T01:20:42.941Z,11.77
2017-12-01T01:23:26.771Z,11.45
2017-12-01T01:26:04.370Z,12.25
2017-12-01T01:28:39.259Z,13.62
2017-12-01T01:31:17.896Z,13.10
2017-12-01T01:34:06.394Z,13.05
2017-12-01T01:36:46.260Z,13.25
2017-12-01T01:39:25.861Z,13.90
2017-12-01T01:42:00.914Z,12.32
2017-12-01T01:44:36.854Z,12.55
2017-12-01T01:47:18.911Z,13.05
2017-12-01T01:50:17.832Z,13.48
2017-12-01T01:52:54.168Z,12.35
2017-12-01T01:55:38.918Z,12.63
2017-12-01T01:58:19.972Z,11.77
2017-12-01T02:00:59.569Z,12.30
2017-12-01T02:03:39.317Z,13.60
2017-12-01T02:06:18.779Z,14.93
2017-12-01T02:09:10.654Z,12.75
2017-12-01T02:11:46.764Z,15.27
2017-12-01T02:17:12.033Z,17.05
2017-12-01T02:19:54.078Z,16.50
2017-12-01T02:22:35.125Z,17.27
2017-12-01T02:25:12.706Z,17.73
2017-12-01T02:27:58.066Z,16.75
2017-12-01T02:30:35.457Z,16.40
2017-12-01T02:33:18.271Z,16.37
2017-12-01T02:36:00.196Z,15.93
2017-12-01T02:38:40.548Z,15.45
2017-12-01T02:41:16.918Z,15.27
2017-12-01T02:44:03.662Z,16.12
2017-12-01T02:46:41.980Z,16.12
2017-12-01T02:49:25.227Z,15.48
2017-12-01T02:52:04.186Z,14.95
2017-12-01T02:57:30.733Z,14.90
2017-12-01T03:00:13.779Z,16.42
2017-12-01T03:02:53.291Z,16.73
2017-12-01T03:05:28.972Z,14.48
2017-12-01T03:08:10.428Z,15.82
2017-12-01T03:10:51.259Z,15.73
2017-12-01T03:13:43.382Z,16.17
2017-12-01T03:16:27.376Z,16.20
2017-12-01T03:22:13.696Z,16.73
2017-12-01T03:25:08.679Z,14.85
2017-12-01T03:27:48.758Z,15.00
2017-12-01T03:30:34.449Z,15.68
2017-12-01T03:33:14.805Z,16.65
2017-12-01T03:36:01.629Z,14.80
2017-12-01T03:38:39.368Z,15.32
2017-12-01T03:41:20.458Z,14.43
2017-12-01T03:43:59.685Z,14.57
2017-12-01T03:46:42.472Z,16.30
2017-12-01T03:49:22.072Z,15.38
2017-12-01T03:52:06.684Z,17.15
2017-12-01T03:54:48.156Z,16.05
2017-12-01T03:57:29.852Z,14.85
2017-12-01T04:00:11.653Z,16.80
2017-12-01T04:03:00.184Z,12.93
2017-12-01T04:05:40.562Z,14.07
2017-12-01T04:08:22.614Z,11.98
2017-12-01T04:11:03.119Z,11.68
2017-12-01T04:13:40.202Z,12.30
2017-12-01T04:16:21.715Z,12.90
2017-12-01T04:19:02.302Z,13.30
2017-12-01T04:21:41.896Z,12.95
2017-12-01T04:24:20.026Z,13.07
2017-12-01T04:26:59.026Z,12.73
2017-12-01T04:29:41.059Z,11.50
2017-12-01T04:32:29.277Z,10.13
2017-12-01T04:35:10.569Z,12.57
2017-12-01T04:37:49.437Z,14.05
2017-12-01T04:40:26.856Z,14.63
2017-12-01T04:43:04.107Z,15.77
2017-12-01T04:45:44.179Z,15.57
2017-12-01T04:56:54.561Z,13.65
2017-12-01T04:59:33.409Z,15.50
2017-12-01T05:02:09.302Z,14.10
2017-12-01T05:07:41.754Z,14.27
2017-12-01T05:10:33.090Z,15.90
2017-12-01T05:13:08.884Z,14.73
2017-12-01T05:15:44.237Z,16.67
2017-12-01T05:23:54.834Z,18.20
2017-12-01T05:26:34.747Z,19.60
2017-12-01T05:29:17.723Z,19.70
2017-12-01T05:31:58.732Z,20.08
2017-12-01T05:34:37.539Z,18.95
2017-12-01T05:37:19.255Z,20.75
2017-12-01T05:39:57.654Z,19.70
2017-12-01T05:42:46.439Z,18.10
2017-12-01T05:48:13.304Z,20.42
2017-12-01T05:50:56.104Z,18.70
2017-12-01T05:53:43.849Z,21.08
2017-12-01T05:56:28.147Z,21.90
2017-12-01T05:59:14.672Z,22.50
2017-12-01T06:01:58.467Z,21.73
2017-12-01T06:04:42.830Z,22.17
2017-12-01T06:07:20.333Z,21.23
2017-12-01T06:10:07.115Z,22.02
2017-12-01T06:12:45.946Z,21.87
2017-12-01T06:15:23.267Z,20.05
2017-12-01T06:18:03.444Z,19.05
2017-12-01T06:20:50.525Z,17.15
2017-12-01T06:23:38.035Z,18.55
2017-12-01T06:26:21.817Z,18.02
2017-12-01T06:29:20.251Z,19.27
2017-12-01T06:32:11.801Z,22.60
2017-12-01T06:34:53.308Z,23.12
2017-12-01T06:40:22.781Z,23.87
2017-12-01T06:43:02.562Z,26.20
2017-12-01T06:45:41.249Z,26.02
2017-12-01T06:48:21.712Z,26.98
2017-12-01T06:51:00.014Z,29.15
2017-12-01T06:53:51.724Z,27.52
2017-12-01T06:56:34.770Z,28.17
2017-12-01T06:59:18.487Z,28.08
2017-12-01T07:02:16.322Z,26.55
2017-12-01T07:04:53.425Z,24.20
2017-12-01T07:07:36.719Z,23.60
2017-12-01T07:10:13.929Z,24.30
2017-12-01T07:12:53.349Z,20.88
2017-12-01T07:15:34.486Z,21.58
2017-12-01T07:18:24.384Z,20.98
2017-12-01T07:21:23.421Z,19.12
2017-12-01T07:24:25.855Z,21.27
2017-12-01T07:27:18.602Z,19.62
2017-12-01T07:30:20.644Z,18.83
2017-12-01T07:33:06.387Z,18.20
2017-12-01T07:36:03.715Z,20.20
2017-12-01T07:38:43.699Z,18.85
2017-12-01T07:44:17.216Z,18.83
2017-12-01T07:46:55.442Z,19.35
2017-12-01T07:52:42.504Z,18.92
2017-12-01T07:55:42.815Z,18.70
2017-12-01T07:58:28.847Z,19.50
2017-12-01T08:01:12.707Z,17.05
2017-12-01T08:03:54.968Z,17.50
2017-12-01T08:06:55.051Z,17.77
2017-12-01T08:09:37.681Z,17.55
2017-12-01T08:12:17.600Z,18.67
2017-12-01T08:14:59.939Z,17.12
2017-12-01T08:17:53.245Z,18.55
2017-12-01T08:20:35.686Z,17.87
2017-12-01T08:23:30.164Z,18.23
2017-12-01T08:26:12.836Z,17.25
2017-12-01T08:28:58.559Z,17.65
2017-12-01T08:31:39.102Z,18.33
2017-12-01T08:34:27.417Z,17.92
2017-12-01T08:37:30.017Z,20.52
2017-12-01T08:45:54.866Z,17.75
2017-12-01T08:48:40.097Z,15.45
2017-12-01T08:51:45.242Z,17.33
2017-12-01T08:54:30.086Z,17.60
2017-12-01T08:57:16.967Z,18.17
2017-12-01T09:02:46.730Z,17.98
2017-12-01T09:08:33.614Z,19.52
2017-12-01T09:11:28.811Z,17.85
2017-12-01T09:47:34.828Z,15.07
2017-12-01T09:50:20.100Z,12.88
2017-12-01T09:53:00.140Z,13.68
2017-12-01T09:55:44.828Z,12.40
2017-12-01T09:58:27.743Z,14.05
2017-12-01T10:01:45.650Z,12.60
2017-12-01T10:04:38.809Z,10.82
2017-12-01T10:07:24.329Z,9.63
2017-12-01T10:13:05.185Z,10.68
2017-12-01T10:15:50.843Z,9.95
2017-12-01T10:18:31.686Z,9.95
2017-12-01T10:21:21.152Z,10.68
2017-12-01T10:24:24.268Z,11.85
2017-12-01T10:27:11.583Z,12.10
2017-12-01T10:30:00.703Z,13.55
2017-12-01T10:35:21.970Z,16.08
2017-12-01T10:41:03.532Z,15.43
2017-12-01T10:43:52.859Z,17.10
2017-12-01T10:46:43.924Z,18.12
2017-12-01T10:49:29.859Z,17.55
2017-12-01T10:52:10.922Z,18.23
2017-12-01T10:54:55.840Z,19.35
2017-12-01T11:00:29.523Z,17.42
2017-12-01T11:03:12.315Z,19.37
2017-12-01T11:05:58.725Z,18.70
2017-12-01T11:08:41.854Z,17.30
2017-12-01T11:11:27.499Z,18.73
2017-12-01T11:17:19.261Z,20.98
2017-12-01T11:20:06.553Z,20.00
2017-12-01T11:22:55.642Z,20.95
2017-12-01T11:25:46.207Z,18.62
2017-12-01T11:28:30.838Z,18.12
2017-12-01T11:31:15.151Z,18.98
2017-12-01T11:33:58.092Z,16.40
2017-12-01T11:36:50.186Z,16.50
2017-12-01T11:39:39.444Z,16.37
2017-12-01T11:42:32.146Z,17.05
2017-12-01T11:45:19.227Z,18.90
2017-12-01T11:48:07.742Z,18.98
2017-12-01T11:50:50.809Z,18.42
2017-12-01T11:53:35.081Z,17.95
2017-12-01T11:56:21.443Z,18.77
2017-12-01T11:59:03.177Z,18.10
2017-12-01T12:02:26.949Z,20.12
2017-12-01T12:05:20.427Z,20.52
2017-12-01T12:08:09.519Z,22.10
2017-12-01T12:10:50.754Z,22.35
2017-12-01T12:13:35.850Z,24.15
2017-12-01T12:16:16.393Z,22.92
2017-12-01T12:18:59.422Z,23.67
2017-12-01T12:21:38.150Z,21.67
2017-12-01T12:24:47.012Z,22.83
2017-12-01T12:27:28.363Z,20.62
2017-12-01T12:30:13.101Z,22.17
2017-12-01T12:32:57.987Z,22.70
2017-12-01T12:36:11.246Z,21.20
2017-12-01T12:38:59.492Z,20.55
2017-12-01T12:41:49.339Z,20.98
2017-12-01T12:47:26.286Z,21.60
2017-12-01T12:50:04.901Z,21.30
2017-12-01T12:52:55.526Z,21.58
2017-12-01T12:55:39.827Z,20.60
2017-12-01T12:58:18.898Z,19.77
2017-12-01T13:01:07.241Z,21.30
2017-12-01T13:03:50.711Z,19.27
2017-12-01T13:06:32.939Z,20.40
2017-12-01T13:09:24.119Z,19.92
2017-12-01T13:12:10.982Z,21.10
2017-12-01T13:14:52.171Z,20.23
2017-12-01T13:17:39.443Z,18.25
2017-12-01T13:20:28.123Z,18.00
2017-12-01T13:26:15.233Z,17.40
2017-12-01T13:29:06.357Z,17.05
2017-12-01T13:31:49.015Z,22.55
2017-12-01T13:37:24.124Z,18.92
2017-12-01T13:40:07.277Z,18.15
2017-12-01T13:42:59.108Z,19.25
2017-12-01T13:45:41.238Z,16.65
2017-12-01T13:48:19.743Z,16.73
2017-12-01T13:51:05.924Z,16.62
2017-12-01T13:53:45.791Z,15.43
2017-12-01T13:59:24.941Z,15.30
2017-12-01T14:02:09.168Z,15.32
2017-12-01T14:04:53.351Z,14.27
2017-12-01T14:07:59.664Z,15.77
2017-12-01T14:10:50.774Z,16.27
2017-12-01T14:13:30.963Z,17.15
2017-12-01T14:16:14.957Z,16.87
2017-12-01T14:22:23.634Z,15.18
2017-12-01T14:25:13.480Z,13.95
2017-12-01T14:27:56.380Z,12.25
2017-12-01T14:31:04.879Z,12.88
2017-12-01T14:33:55.503Z,13.38
2017-12-01T14:36:34.078Z,15.65
2017-12-01T14:39:22.318Z,15.27
2017-12-01T14:42:01.106Z,14.77
2017-12-01T14:44:48.108Z,13.93
2017-12-01T14:47:31.933Z,13.98
2017-12-01T14:50:27.013Z,13.15
2017-12-01T14:53:07.184Z,13.45
2017-12-01T14:55:51.333Z,12.48
2017-12-01T14:58:42.906Z,13.18
2017-12-01T15:01:42.251Z,13.35
2017-12-01T15:04:29.398Z,12.90
2017-12-01T15:07:27.896Z,13.15
2017-12-01T15:10:19.506Z,13.35
2017-12-01T15:13:04.688Z,12.75
2017-12-01T15:15:44.893Z,14.13
2017-12-01T15:18:33.671Z,13.07
2017-12-01T15:21:16.168Z,13.10
2017-12-01T15:24:02.907Z,13.55
2017-12-01T15:26:47.924Z,12.98
2017-12-01T15:29:39.207Z,13.00
2017-12-01T15:32:22.242Z,12.43
2017-12-01T15:35:11.586Z,12.73
2017-12-01T15:37:51.680Z,14.77
2017-12-01T15:40:37.802Z,15.27
2017-12-01T15:43:35.834Z,15.77
2017-12-01T15:46:29.767Z,14.43
2017-12-01T15:49:21.963Z,14.77
2017-12-01T15:52:04.452Z,15.63
2017-12-01T15:54:40.527Z,15.73
2017-12-01T15:57:25.588Z,16.55
2017-12-01T16:00:11.177Z,16.83
2017-12-01T16:02:54.196Z,18.37
2017-12-01T16:05:44.722Z,17.42
2017-12-01T16:08:36.057Z,17.33
2017-12-01T16:11:19.132Z,19.60
2017-12-01T16:16:59.312Z,16.40
2017-12-01T16:20:01.263Z,15.98
2017-12-01T16:22:54.434Z,16.98
2017-12-01T16:25:40.616Z,16.58
2017-12-01T16:28:40.910Z,15.15
2017-12-01T16:31:54.141Z,16.40
2017-12-01T16:34:36.480Z,17.25
2017-12-01T16:37:25.079Z,15.75
2017-12-01T16:40:04.002Z,15.05
2017-12-01T16:42:51.314Z,16.58
2017-12-01T16:45:31.868Z,16.17
2017-12-01T16:48:27.292Z,18.55
2017-12-01T16:51:15.191Z,17.05
2017-12-01T16:54:02.206Z,18.87
2017-12-01T16:56:47.538Z,18.77
2017-12-01T16:59:29.906Z,21.62
2017-12-01T17:02:10.099Z,29.65
2017-12-01T17:04:54.783Z,32.95
2017-12-01T17:07:37.978Z,23.05
2017-12-01T17:10:24.633Z,22.42
2017-12-01T17:13:12.140Z,20.83
2017-12-01T17:15:52.658Z,19.40
2017-12-01T17:18:32.105Z,19.40
2017-12-01T17:21:14.019Z,20.08
2017-12-01T17:23:56.526Z,20.25
2017-12-01T17:26:33.964Z,20.08
2017-12-01T17:29:19.076Z,21.08
2017-12-01T17:32:01.229Z,21.02
2017-12-01T17:34:39.883Z,20.33
2017-12-01T17:37:24.666Z,21.98
2017-12-01T17:40:17.187Z,20.73
2017-12-01T17:43:06.037Z,21.70
2017-12-01T17:45:50.658Z,20.48
2017-12-01T17:48:34.776Z,21.73
2017-12-01T17:51:19.104Z,20.85
2017-12-01T17:53:58.302Z,20.08
2017-12-01T17:56:44.216Z,19.90
2017-12-01T17:59:28.938Z,22.37
2017-12-01T18:02:20.856Z,21.00
2017-12-01T18:05:00.056Z,20.58
2017-12-01T18:07:41.210Z,21.98
2017-12-01T18:10:21.535Z,21.27
2017-12-01T18:13:07.994Z,21.17
2017-12-01T18:15:56.564Z,19.45
2017-12-01T18:18:36.606Z,21.50
2017-12-01T18:21:12.939Z,21.65
2017-12-01T18:23:58.050Z,22.37
2017-12-01T18:26:38.708Z,22.73
2017-12-01T18:29:20.649Z,20.98
2017-12-01T18:32:10.391Z,19.65
2017-12-01T18:35:24.392Z,19.33
2017-12-01T18:39:40.183Z,20.00
2017-12-01T18:42:31.653Z,19.58
2017-12-01T18:45:27.686Z,20.00
2017-12-01T18:51:42.403Z,20.25
2017-12-01T18:54:35.396Z,19.87
2017-12-01T18:57:49.850Z,20.58
2017-12-01T19:00:51.348Z,22.33
2017-12-01T19:10:25.497Z,21.05
2017-12-01T19:13:29.204Z,19.87
2017-12-01T19:19:53.302Z,20.95
2017-12-01T19:22:42.186Z,21.25
2017-12-01T19:31:18.733Z,20.17
2017-12-01T19:41:15.577Z,20.90
2017-12-01T19:44:22.880Z,19.30
2017-12-01T19:47:07.656Z,20.85
2017-12-01T19:49:55.283Z,20.12
2017-12-01T19:52:53.934Z,20.33
2017-12-01T19:56:15.620Z,21.83
2017-12-01T19:59:05.335Z,20.20
2017-12-01T20:05:29.313Z,23.12
2017-12-01T20:08:35.720Z,21.35
2017-12-01T20:14:46.721Z,19.70
2017-12-01T20:17:37.333Z,21.02
2017-12-01T20:20:17.337Z,23.17
2017-12-01T20:23:03.584Z,21.30
2017-12-01T20:58:16.200Z,19.25
2017-12-01T21:01:05.334Z,17.10
2017-12-01T21:09:13.865Z,18.45
2017-12-01T21:12:22.832Z,18.58
2017-12-01T21:15:17.508Z,18.15
2017-12-01T21:18:26.853Z,17.80
2017-12-01T21:24:42.575Z,18.55
2017-12-01T21:28:00.576Z,17.70
2017-12-01T21:30:51.132Z,19.90
2017-12-01T21:33:37.997Z,19.67
2017-12-01T21:36:15.622Z,19.15
2017-12-01T21:39:01.863Z,18.23
2017-12-01T21:41:41.283Z,16.02
2017-12-01T21:44:24.106Z,17.73
2017-12-01T21:47:05.968Z,17.70
2017-12-01T21:49:52.616Z,15.73
2017-12-01T21:52:38.014Z,16.73
2017-12-01T22:49:03.737Z,19.65
2017-12-01T22:51:48.075Z,20.80
2017-12-01T22:54:28.725Z,20.15
2017-12-01T22:57:39.294Z,20.33
2017-12-01T23:00:21.244Z,21.50
2017-12-01T23:03:08.204Z,21.08
2017-12-01T23:05:54.959Z,21.15
2017-12-01T23:08:41.889Z,19.83
2017-12-01T23:11:25.338Z,19.85
2017-12-01T23:14:02.023Z,20.90
2017-12-01T23:16:38.124Z,19.77
2017-12-01T23:19:13.639Z,19.65
2017-12-01T23:21:50.517Z,20.33
2017-12-01T23:24:29.345Z,20.55
2017-12-01T23:27:07.491Z,20.70
2017-12-01T23:32:20.293Z,19.80
2017-12-01T23:34:57.730Z,18.60
2017-12-01T23:37:38.136Z,19.90
2017-12-01T23:42:53.085Z,18.92
2017-12-01T23:45:28.366Z,19.70
2017-12-01T23:48:08.586Z,19.98
2017-12-01T23:50:43.124Z,18.77
2017-12-01T23:53:23.911Z,19.23
2017-12-01T23:56:06.557Z,18.35
2017-12-01T23:58:48.645Z,19.52
